Time;durP1;ratioP1;P1;durP2;ratioP2;P2;SDS_P1;SDS_P2;PMS_P1;PMS_P2;Temp;Humidity;BMP_temperature;BMP_pressure;BME280_temperature;BME280_humidity;BME280_pressure;Samples;Min_cycle;Max_cycle;Signal;HPM_P1;HPM_P2
2022/06/03 00:00:57;;;;;;;10.10;5.00;;;;;;;20.70;60.96;98875.91;5092350;28;20527;-90
2022/06/03 00:03:43;;;;;;;12.73;4.70;;;;;;;20.77;60.53;98879.03;5111066;28;20036;-91
2022/06/03 00:06:35;;;;;;;9.27;5.03;;;;;;;20.63;61.13;98879.97;5109838;28;20036;-90
2022/06/03 00:09:13;;;;;;;10.10;4.88;;;;;;;20.53;61.02;98879.69;5105680;28;20101;-91
2022/06/03 00:11:55;;;;;;;;;;;;;;;20.51;62.09;98900.53;5110816;28;20036;-92
2022/06/03 00:14:47;;;;;;;9.45;4.80;;;;;;;20.40;62.48;98884.16;5108213;28;19998;-91
2022/06/03 00:17:32;;;;;;;9.63;4.82;;;;;;;20.37;62.23;98879.84;5109565;28;20504;-92
2022/06/03 00:20:13;;;;;;;9.93;4.57;;;;;;;20.32;62.82;98879.28;5110754;28;20035;-91
2022/06/03 00:22:57;;;;;;;9.30;4.55;;;;;;;20.29;62.25;98874.06;5110556;28;20135;-92
2022/06/03 00:25:44;;;;;;;9.48;5.15;;;;;;;20.28;63.46;98888.53;5109369;28;20043;-91
2022/06/03 00:28:30;;;;;;;12.38;5.50;;;;;;;20.20;63.62;98885.47;5107064;28;20544;-91
2022/06/03 00:31:10;;;;;;;8.95;5.10;;;;;;;20.15;63.58;98893.88;5107253;28;20051;-92
2022/06/03 00:34:06;;;;;;;8.23;4.70;;;;;;;20.06;64.32;98892.63;5106713;28;20032;-91
2022/06/03 00:36:48;;;;;;;9.75;4.82;;;;;;;20.08;63.45;98884.41;5104000;28;20032;-90
2022/06/03 00:39:29;;;;;;;9.48;4.50;;;;;;;20.04;63.70;98872.97;5105944;28;20493;-92
2022/06/03 00:42:07;;;;;;;10.57;5.10;;;;;;;20.04;63.45;98870.25;5107693;28;20043;-92
2022/06/03 00:44:54;;;;;;;6.95;5.05;;;;;;;20.08;63.43;98874.50;5109454;28;20397;-92
2022/06/03 00:47:45;;;;;;;7.53;4.82;;;;;;;20.16;63.81;98875.81;5107858;28;20069;-91
2022/06/03 00:50:51;;;;;;;9.00;5.25;;;;;;;20.19;64.25;98891.81;5109029;28;20040;-92
2022/06/03 00:53:53;;;;;;;11.50;4.70;;;;;;;20.10;64.74;98883.38;5110214;28;20127;-92
2022/06/03 00:56:45;;;;;;;6.85;4.38;;;;;;;20.02;65.10;98888.38;5101103;28;20078;-93
2022/06/03 00:59:44;;;;;;;10.48;4.80;;;;;;;19.98;65.43;98896.78;5095246;28;20123;-91
2022/06/03 01:02:22;;;;;;;7.90;5.18;;;;;;;19.88;65.54;98889.25;5093856;28;20036;-93
2022/06/03 01:05:05;;;;;;;11.48;5.15;;;;;;;19.68;66.09;98876.13;5095488;28;20040;-90
2022/06/03 01:07:44;;;;;;;8.50;5.07;;;;;;;19.63;66.08;98870.16;5094881;28;20044;-92
2022/06/03 01:10:29;;;;;;;11.90;5.47;;;;;;;19.54;66.22;98862.63;5095315;28;20048;-91
2022/06/03 01:13:29;;;;;;;8.35;4.63;;;;;;;19.70;65.28;98879.63;5095513;28;20058;-92
2022/06/03 01:16:05;;;;;;;8.32;4.90;;;;;;;19.78;65.29;98876.44;5092196;28;20047;-92
2022/06/03 01:18:43;;;;;;;9.43;5.45;;;;;;;19.72;65.88;98876.84;5095352;28;20069;-89
2022/06/03 01:21:20;;;;;;;9.30;5.25;;;;;;;19.59;66.21;98865.91;5092435;28;20122;-91
2022/06/03 01:24:26;;;;;;;8.02;4.75;;;;;;;19.55;66.33;98875.16;5095734;28;20044;-93
2022/06/03 01:27:33;;;;;;;10.35;5.35;;;;;;;19.58;66.90;98878.53;5093614;28;20060;-90
2022/06/03 01:30:14;;;;;;;12.52;5.32;;;;;;;19.46;67.23;98860.41;5074068;28;20393;-91
2022/06/03 01:33:16;;;;;;;11.88;5.40;;;;;;;19.39;67.34;98850.97;5097212;28;20047;-93
2022/06/03 01:36:23;;;;;;;9.30;5.60;;;;;;;19.45;67.66;98882.94;5095349;28;20872;-91
2022/06/03 01:39:21;;;;;;;11.93;5.53;;;;;;;19.39;68.45;98886.91;5093500;28;20051;-92
2022/06/03 01:42:13;;;;;;;11.68;5.70;;;;;;;19.25;68.66;98873.38;5031673;28;20052;-92
2022/06/03 01:45:02;;;;;;;6.45;4.78;;;;;;;19.28;68.43;98873.22;5035615;28;20108;-93
2022/06/03 01:47:59;;;;;;;9.38;5.50;;;;;;;19.33;68.96;98879.19;5031069;28;20072;-92
2022/06/03 01:50:48;;;;;;;10.13;5.20;;;;;;;19.23;69.07;98873.47;5034122;28;20053;-92
2022/06/03 01:53:29;;;;;;;10.18;5.32;;;;;;;19.16;69.22;98869.41;5033299;28;20038;-93
2022/06/03 01:56:19;;;;;;;8.43;5.05;;;;;;;19.15;69.75;98874.88;5033504;28;21461;-92
2022/06/03 01:59:22;;;;;;;12.63;6.15;;;;;;;19.04;70.75;98876.44;5032099;28;20060;-92
2022/06/03 02:02:30;;;;;;;8.23;5.28;;;;;;;19.03;70.31;98880.06;5032210;28;20566;-92
2022/06/03 02:05:33;;;;;;;11.40;5.37;;;;;;;18.94;70.68;98867.16;5032786;28;20052;-92
2022/06/03 02:08:13;;;;;;;9.32;6.00;;;;;;;19.01;71.10;98881.97;5012672;28;20096;-92
2022/06/03 02:11:18;;;;;;;11.68;5.38;;;;;;;18.98;71.05;98863.31;5031698;28;20048;-92
2022/06/03 02:14:35;;;;;;;8.40;5.47;;;;;;;18.96;71.84;98870.63;5034796;28;20041;-91
2022/06/03 02:17:30;;;;;;;12.77;6.22;;;;;;;18.91;72.38;98871.84;5022061;28;20073;-92
2022/06/03 02:20:46;;;;;;;9.43;6.00;;;;;;;18.90;72.95;98879.06;5092292;28;20051;-93
2022/06/03 02:24:06;;;;;;;9.98;5.50;;;;;;;18.81;72.76;98876.94;5076507;28;20055;-91
2022/06/03 02:26:55;;;;;;;12.48;5.95;;;;;;;18.75;72.75;98872.72;5011741;28;20041;-91
2022/06/03 02:33:46;;;;;;;12.35;5.82;;;;;;;18.72;73.12;98874.75;5098800;27;20376;-91
2022/06/03 02:36:57;;;;;;;12.00;6.13;;;;;;;18.66;74.10;98884.91;5069016;28;20078;-91
2022/06/03 02:39:53;;;;;;;11.80;5.85;;;;;;;18.56;74.69;98886.38;5068842;28;20498;-93
2022/06/03 02:42:51;;;;;;;10.82;6.50;;;;;;;18.52;74.97;98884.84;5070002;28;20498;-90
2022/06/03 02:45:52;;;;;;;9.20;6.72;;;;;;;18.48;75.04;98877.91;5064643;28;20056;-91
2022/06/03 02:48:45;;;;;;;14.18;6.60;;;;;;;18.47;75.31;98886.94;5007898;28;20403;-91
2022/06/03 02:51:24;;;;;;;9.63;6.05;;;;;;;18.38;75.76;98885.63;5009009;28;20496;-90
2022/06/03 02:54:19;;;;;;;11.18;6.05;;;;;;;18.32;76.33;98893.19;5008046;28;20066;-93
2022/06/03 02:57:23;;;;;;;14.90;6.03;;;;;;;18.26;76.81;98891.72;5008742;28;20034;-92
2022/06/03 03:00:08;;;;;;;12.88;6.20;;;;;;;18.26;76.61;98889.03;5008532;28;20074;-92
2022/06/03 03:02:50;;;;;;;9.60;6.28;;;;;;;18.29;76.13;98883.47;5008599;28;20126;-89
2022/06/03 03:05:41;;;;;;;12.15;6.13;;;;;;;18.41;75.87;98890.84;5007891;28;20168;-90
2022/06/03 03:08:31;;;;;;;11.07;6.57;;;;;;;18.44;75.26;98897.88;5006076;28;20042;-93
2022/06/03 03:11:26;;;;;;;9.02;6.68;;;;;;;18.42;76.17;98908.72;5007900;28;20046;-89
2022/06/03 03:14:20;;;;;;;12.35;6.88;;;;;;;18.39;77.03;98913.41;4965293;28;20053;-90
2022/06/03 03:17:13;;;;;;;12.35;6.95;;;;;;;18.39;77.00;98910.72;5009607;28;20042;-93
2022/06/03 03:20:25;;;;;;;9.30;5.95;;;;;;;18.25;77.00;98912.38;5007111;28;20112;-94
2022/06/03 03:23:21;;;;;;;8.10;5.90;;;;;;;18.24;77.50;98912.47;4931289;29;20125;-91
2022/06/03 03:26:00;;;;;;;12.60;6.32;;;;;;;18.20;76.75;98916.31;4998777;28;20042;-92
2022/06/03 03:28:43;;;;;;;9.73;6.38;;;;;;;18.05;77.95;98915.31;5002108;28;20050;-91
2022/06/03 03:31:29;;;;;;;10.55;6.95;;;;;;;17.97;78.53;98912.19;5007780;28;20888;-93
2022/06/03 03:34:15;;;;;;;11.50;6.90;;;;;;;17.89;78.82;98911.72;5007957;28;20053;-92
2022/06/03 03:37:19;;;;;;;12.50;6.63;;;;;;;17.77;80.24;98914.09;5005577;28;20046;-93
2022/06/03 03:40:28;;;;;;;14.27;7.38;;;;;;;17.84;80.64;98912.84;5005046;28;20050;-92
2022/06/03 03:43:25;;;;;;;12.85;6.90;;;;;;;17.76;80.78;98917.75;5002386;28;20046;-92
2022/06/03 03:46:38;;;;;;;14.00;7.25;;;;;;;17.81;81.06;98913.00;4975978;28;20410;-93
2022/06/03 03:49:35;;;;;;;10.88;6.85;;;;;;;17.88;79.90;98918.94;4993414;28;20116;-93
2022/06/03 03:52:39;;;;;;;7.88;5.82;;;;;;;17.85;80.23;98908.34;4994187;28;20942;-93
2022/06/03 03:55:31;;;;;;;11.30;6.40;;;;;;;17.89;79.89;98919.78;5029916;28;20044;-92
2022/06/03 03:58:34;;;;;;;11.23;6.13;;;;;;;17.93;80.10;98914.16;5057925;28;20061;-92
2022/06/03 04:01:46;;;;;;;13.93;7.20;;;;;;;17.94;80.07;98915.91;5054947;28;20447;-92
2022/06/03 04:04:54;;;;;;;12.05;6.55;;;;;;;17.99;80.16;98927.28;5053993;28;20036;-92
2022/06/03 04:07:48;;;;;;;12.63;6.75;;;;;;;18.01;80.13;98937.97;5001072;28;20069;-92
2022/06/03 04:11:02;;;;;;;11.45;7.05;;;;;;;18.07;80.61;98943.03;4998408;28;20052;-92
2022/06/03 04:14:06;;;;;;;12.05;6.85;;;;;;;18.04;80.74;98937.78;5004593;28;20477;-92
2022/06/03 04:16:59;;;;;;;10.73;6.85;;;;;;;18.15;80.58;98951.56;4993702;28;20134;-92
2022/06/03 04:19:44;;;;;;;11.73;7.07;;;;;;;18.07;80.98;98934.94;5002206;28;20042;-92
2022/06/03 04:22:46;;;;;;;13.00;7.45;;;;;;;18.17;80.96;98937.97;5001506;28;20132;-92
2022/06/03 04:25:38;;;;;;;12.23;7.07;;;;;;;18.24;80.83;98937.56;5003521;28;20214;-94
2022/06/03 04:28:51;;;;;;;12.45;7.30;;;;;;;18.36;80.66;98945.91;5003630;28;20050;-92
2022/06/03 04:32:03;;;;;;;11.50;6.80;;;;;;;18.48;80.38;98945.22;5002658;28;20081;-93
2022/06/03 04:35:07;;;;;;;11.52;6.80;;;;;;;18.58;79.53;98935.66;4992568;28;20401;-93
2022/06/03 04:38:02;;;;;;;11.27;6.72;;;;;;;18.72;78.44;98948.34;5002412;28;20087;-92
2022/06/03 04:41:13;;;;;;;11.18;6.80;;;;;;;18.72;78.43;98934.88;5002544;28;20168;-94
2022/06/03 04:44:15;;;;;;;12.13;6.90;;;;;;;18.80;79.30;98938.03;5023479;28;20052;-94
2022/06/03 04:47:17;;;;;;;11.02;6.50;;;;;;;18.95;76.38;98938.94;5040278;28;20099;-92
2022/06/03 04:50:25;;;;;;;11.95;7.82;;;;;;;19.09;76.62;98944.41;5054306;28;20521;-93
2022/06/03 04:53:24;;;;;;;11.48;6.90;;;;;;;19.32;75.76;98952.94;5053912;28;20048;-93
2022/06/03 04:56:23;;;;;;;9.00;6.72;;;;;;;19.53;75.32;98953.47;5054167;28;20098;-93
2022/06/03 04:59:22;;;;;;;15.52;6.88;;;;;;;19.89;72.78;98947.66;5052921;28;20045;-93
2022/06/03 05:02:34;;;;;;;13.35;7.20;;;;;;;20.27;70.39;98955.16;5054262;28;20036;-93
2022/06/03 05:05:41;;;;;;;13.10;7.03;;;;;;;20.59;69.08;98952.25;5021419;28;20087;-93
2022/06/03 05:08:53;;;;;;;11.67;7.10;;;;;;;20.78;68.32;98949.22;5000363;28;20042;-93
2022/06/03 05:12:02;;;;;;;11.68;6.60;;;;;;;21.09;66.61;98948.03;5003993;28;20102;-93
2022/06/03 05:15:07;;;;;;;9.32;5.88;;;;;;;21.15;66.08;98945.91;5001784;28;20065;-93
2022/06/03 05:18:07;;;;;;;11.45;6.57;;;;;;;21.20;65.32;98949.16;5001100;28;20073;-93
2022/06/03 05:20:52;;;;;;;12.88;6.63;;;;;;;21.10;65.44;98949.78;4990379;28;20138;-94
2022/06/03 05:23:53;;;;;;;14.82;6.80;;;;;;;21.20;66.07;98960.81;4999027;28;20084;-92
2022/06/03 05:27:02;;;;;;;15.88;7.20;;;;;;;21.57;64.32;98966.44;4995661;28;20042;-92
2022/06/03 05:29:59;;;;;;;10.85;6.82;;;;;;;21.29;64.54;98964.75;5000036;28;20069;-92
2022/06/03 05:32:57;;;;;;;14.65;6.68;;;;;;;21.21;65.78;98988.72;5000125;28;20155;-91
2022/06/03 05:35:43;;;;;;;14.30;7.00;;;;;;;21.65;64.22;98987.59;4999604;28;20041;-91
2022/06/03 05:38:42;;;;;;;9.93;6.82;;;;;;;22.03;62.47;98973.19;4999411;28;21404;-92
2022/06/03 05:44:47;;;;;;;13.13;7.05;;;;;;;22.62;60.42;98978.91;5119044;27;20399;-91
2022/06/03 05:47:18;;;;;;;13.23;6.82;;;;;;;22.82;59.69;98984.69;5121588;28;20047;-96
2022/06/03 05:49:53;;;;;;;10.85;6.30;;;;;;;23.12;58.61;98989.69;5120907;28;20040;-93
2022/06/03 05:52:43;;;;;;;11.55;5.97;;;;;;;23.31;58.39;98991.88;5120996;28;20043;-90
2022/06/03 05:55:22;;;;;;;9.35;5.97;;;;;;;23.56;56.57;98980.88;5121809;28;20500;-91
2022/06/03 05:58:05;;;;;;;10.27;5.80;;;;;;;23.25;56.51;98974.22;5119391;28;20039;-93
2022/06/03 06:00:56;;;;;;;10.38;5.65;;;;;;;22.45;59.00;98971.13;5117296;28;20044;-92
2022/06/03 06:03:39;;;;;;;9.80;5.55;;;;;;;22.44;59.29;98974.81;5125175;28;20383;-93
2022/06/03 06:06:27;;;;;;;12.57;5.82;;;;;;;22.60;59.20;98985.38;5120148;28;20036;-92
2022/06/03 06:09:04;;;;;;;10.43;6.85;;;;;;;22.58;58.72;98969.25;5120428;27;20035;-93
2022/06/03 06:11:40;;;;;;;10.05;5.85;;;;;;;22.95;57.03;98969.22;5121726;28;20035;-92
2022/06/03 06:14:32;;;;;;;11.05;5.70;;;;;;;22.79;57.60;98980.34;5117746;28;20485;-88
2022/06/03 06:17:07;;;;;;;10.73;5.68;;;;;;;22.69;58.53;98968.47;5123260;28;20051;-95
2022/06/03 06:19:44;;;;;;;15.77;5.30;;;;;;;22.71;58.19;98985.47;5125444;28;20040;-92
2022/06/03 06:22:23;;;;;;;10.50;5.65;;;;;;;22.31;58.86;98986.50;5119278;28;20745;-92
2022/06/03 06:25:03;;;;;;;11.93;6.35;;;;;;;22.11;58.99;98979.78;5124453;28;20121;-92
2022/06/03 06:27:59;;;;;;;11.48;5.82;;;;;;;21.63;61.23;98982.28;5120174;28;20397;-91
2022/06/03 06:31:03;;;;;;;11.27;6.25;;;;;;;21.78;60.80;98980.34;5125071;27;20039;-92
2022/06/03 06:34:07;;;;;;;12.75;6.20;;;;;;;21.67;61.22;98978.38;5121254;28;20050;-92
2022/06/03 06:37:04;;;;;;;9.68;5.70;;;;;;;21.99;60.55;98969.84;5104624;27;20077;-93
2022/06/03 06:39:49;;;;;;;11.90;6.72;;;;;;;21.87;60.13;98971.56;5122359;27;20036;-92
2022/06/03 06:42:26;;;;;;;9.40;6.50;;;;;;;22.00;60.44;98962.59;5120969;28;20026;-91
2022/06/03 06:45:09;;;;;;;10.93;5.90;;;;;;;22.39;58.86;98968.84;5120028;28;20287;-93
2022/06/03 06:47:44;;;;;;;8.50;5.80;;;;;;;22.37;58.43;98954.56;5121698;27;20036;-92
2022/06/03 06:50:21;;;;;;;11.90;6.10;;;;;;;22.55;56.70;98942.34;5117983;27;20036;-94
2022/06/03 06:52:54;;;;;;;10.13;6.30;;;;;;;22.95;57.57;98955.66;5121550;28;20488;-93
2022/06/03 06:55:27;;;;;;;14.27;7.05;;;;;;;22.64;57.89;98952.53;5109101;28;20039;-93
2022/06/03 06:57:56;;;;;;;12.55;6.35;;;;;;;22.69;57.90;98952.19;5113025;28;20035;-92
2022/06/03 07:00:24;;;;;;;10.25;6.20;;;;;;;23.16;56.65;98959.50;5106707;28;20114;-93
2022/06/03 07:02:53;;;;;;;8.60;5.70;;;;;;;23.59;55.35;98955.31;5106487;28;20060;-92
2022/06/03 07:05:28;;;;;;;9.60;6.10;;;;;;;23.78;54.46;98943.94;5102918;28;20040;-92
2022/06/03 07:08:01;;;;;;;12.05;5.30;;;;;;;24.08;53.43;98939.78;5104926;28;20036;-92
2022/06/03 07:10:31;;;;;;;8.18;5.45;;;;;;;24.36;53.01;98932.97;5105650;28;20039;-93
2022/06/03 07:13:03;;;;;;;9.88;5.75;;;;;;;24.49;51.98;98931.00;5107075;28;20046;-92
2022/06/03 07:15:40;;;;;;;9.40;5.30;;;;;;;24.85;52.09;98922.63;5107947;28;20085;-92
2022/06/03 07:21:23;;;;;;;9.02;5.45;;;;;;;25.60;49.75;98924.44;5132807;27;20409;-93
2022/06/03 07:23:52;;;;;;;13.00;5.70;;;;;;;25.85;49.83;98922.28;5128389;28;20085;-89
2022/06/03 07:26:32;;;;;;;10.80;5.50;;;;;;;25.88;48.19;98914.75;5132343;28;20039;-91
2022/06/03 07:29:05;;;;;;;9.05;5.15;;;;;;;25.82;48.55;98921.56;5128946;28;20071;-91
2022/06/03 07:31:36;;;;;;;13.40;5.30;;;;;;;26.01;49.31;98912.66;5130461;28;20391;-91
2022/06/03 07:34:05;;;;;;;10.57;5.68;;;;;;;26.22;49.50;98906.31;5128154;28;20070;-90
2022/06/03 07:36:44;;;;;;;10.65;5.60;;;;;;;26.32;48.66;98887.25;5131859;28;20036;-92
2022/06/03 07:39:38;;;;;;;7.93;5.22;;;;;;;26.68;48.60;98896.69;5132056;28;20110;-94
2022/06/03 07:42:09;;;;;;;10.88;6.30;;;;;;;26.65;47.80;98875.16;5127587;28;20377;-95
2022/06/03 07:44:43;;;;;;;11.98;5.72;;;;;;;26.96;47.80;98888.69;5132184;28;20039;-94
2022/06/03 07:47:10;;;;;;;9.85;5.95;;;;;;;27.10;47.12;98874.59;5133528;27;20122;-95
2022/06/03 07:49:38;;;;;;;11.18;6.10;;;;;;;27.31;46.39;98879.09;5133713;27;20031;-94
2022/06/03 07:52:13;;;;;;;9.68;5.78;;;;;;;27.52;45.11;98878.91;5133915;27;20078;-95
2022/06/03 07:54:50;;;;;;;8.85;5.70;;;;;;;27.66;43.76;98882.03;5134072;27;20061;-92
2022/06/03 07:57:21;;;;;;;11.70;5.90;;;;;;;27.58;45.64;98870.13;5134567;27;20169;-94
2022/06/03 07:59:47;;;;;;;9.18;6.13;;;;;;;27.70;45.04;98863.50;5133598;27;20035;-93
2022/06/03 08:02:16;;;;;;;11.32;5.50;;;;;;;27.60;45.58;98859.91;5132168;27;20069;-93
2022/06/03 08:04:43;;;;;;;12.07;6.25;;;;;;;27.19;45.78;98875.59;5131500;27;20044;-93
2022/06/03 08:13:28;;;;;;;10.93;5.40;;;;;;;26.48;47.61;98884.88;5145299;27;20869;-94
2022/06/03 08:15:57;;;;;;;8.20;6.00;;;;;;;26.51;45.44;98875.53;5111235;28;20062;-90
2022/06/03 08:18:25;;;;;;;9.60;5.47;;;;;;;26.99;44.14;98888.41;5109139;28;20055;-89
2022/06/03 08:20:53;;;;;;;9.13;5.65;;;;;;;26.98;43.35;98886.69;5111320;28;20043;-92
2022/06/03 08:23:22;;;;;;;9.25;5.60;;;;;;;27.48;42.99;98877.47;5111419;28;20047;-90
2022/06/03 08:25:49;;;;;;;;;;;;;;;27.70;42.85;98884.50;5111475;28;20028;-90
2022/06/03 08:28:20;;;;;;;13.93;6.97;;;;;;;27.90;44.43;98891.63;5111173;28;19920;-90
2022/06/03 08:30:50;;;;;;;14.40;7.28;;;;;;;28.23;42.98;98882.00;5110446;28;20074;-92
2022/06/03 08:33:27;;;;;;;12.55;6.10;;;;;;;28.58;42.37;98882.28;5112174;28;20040;-90
2022/06/03 08:35:53;;;;;;;11.10;6.68;;;;;;;28.93;41.42;98861.44;5111764;28;20404;-90
2022/06/03 08:38:23;;;;;;;9.65;5.25;;;;;;;29.24;38.82;98872.88;5112599;28;20046;-94
2022/06/03 08:41:06;;;;;;;10.68;5.65;;;;;;;29.24;39.10;98862.78;5111119;28;20046;-93
2022/06/03 08:43:54;;;;;;;8.18;5.45;;;;;;;29.49;38.82;98868.44;5111227;28;20044;-92
2022/06/03 08:46:27;;;;;;;9.57;5.22;;;;;;;29.69;37.91;98874.63;5109135;28;20040;-93
2022/06/03 08:49:00;;;;;;;10.38;5.82;;;;;;;29.63;38.13;98859.66;5111866;28;20036;-91
2022/06/03 08:51:35;;;;;;;9.40;5.18;;;;;;;29.70;37.05;98868.13;5110466;28;20131;-92
2022/06/03 08:54:07;;;;;;;10.38;5.60;;;;;;;28.95;38.74;98857.53;5110832;28;20059;-92
2022/06/03 08:56:35;;;;;;;7.97;5.32;;;;;;;28.75;39.79;98875.09;5111564;28;20032;-92
2022/06/03 08:59:05;;;;;;;11.20;5.43;;;;;;;28.30;38.87;98874.06;5109151;28;20560;-90
2022/06/03 09:01:38;;;;;;;9.60;4.78;;;;;;;28.06;40.63;98880.06;5110524;28;20028;-91
2022/06/03 09:04:13;;;;;;;8.63;5.50;;;;;;;27.81;39.95;98885.16;5109683;28;20039;-92
2022/06/03 09:06:49;;;;;;;9.75;5.78;;;;;;;27.92;41.90;98891.50;5109090;28;20044;-91
2022/06/03 09:09:26;;;;;;;7.90;5.28;;;;;;;27.97;39.89;98902.84;5109944;28;20733;-93
2022/06/03 09:12:02;;;;;;;7.10;4.57;;;;;;;28.53;39.47;98901.03;5108629;28;20056;-93
2022/06/03 09:14:29;;;;;;;9.27;4.60;;;;;;;28.60;37.90;98902.13;5110280;28;20035;-94
2022/06/03 09:17:05;;;;;;;8.85;4.38;;;;;;;29.27;37.56;98903.53;5111063;28;20032;-94
2022/06/03 09:19:34;;;;;;;7.50;4.57;;;;;;;29.63;37.65;98905.38;5110036;28;20071;-94
2022/06/03 09:22:10;;;;;;;7.20;4.32;;;;;;;30.16;38.08;98907.09;5109965;28;20393;-95
2022/06/03 09:24:40;;;;;;;7.35;4.10;;;;;;;29.83;36.39;98903.31;5097934;28;20118;-95
2022/06/03 09:27:08;;;;;;;7.95;4.50;;;;;;;29.56;36.73;98894.19;5098291;28;20035;-96
2022/06/03 09:29:34;;;;;;;8.07;4.30;;;;;;;29.96;36.23;98894.66;5097684;28;20435;-92
2022/06/03 09:32:05;;;;;;;8.73;4.72;;;;;;;29.96;36.03;98879.06;5096895;28;20505;-93
2022/06/03 09:34:40;;;;;;;11.40;4.50;;;;;;;30.53;35.00;98874.88;5097994;28;20048;-95
2022/06/03 09:37:08;;;;;;;6.30;4.20;;;;;;;30.02;33.20;98881.16;5096567;28;20044;-95
2022/06/03 09:39:34;;;;;;;7.30;4.10;;;;;;;29.76;33.85;98861.13;5097296;28;20067;-93
2022/06/03 09:42:00;;;;;;;8.15;3.70;;;;;;;30.23;32.28;98874.38;5096703;28;20063;-95
2022/06/03 09:44:27;;;;;;;6.72;3.63;;;;;;;30.61;32.82;98861.19;5097563;28;20032;-95
2022/06/03 09:46:58;;;;;;;5.35;3.50;;;;;;;31.04;29.13;98862.00;5096677;28;20044;-92
2022/06/03 09:49:27;;;;;;;6.50;3.60;;;;;;;31.39;30.13;98863.53;5092035;28;20044;-93
2022/06/03 09:51:59;;;;;;;6.57;3.90;;;;;;;31.74;30.36;98869.72;5097867;28;20420;-94
2022/06/03 09:54:28;;;;;;;5.07;3.42;;;;;;;31.70;29.50;98865.59;5095974;28;20043;-95
2022/06/03 09:56:58;;;;;;;5.50;3.50;;;;;;;32.04;28.74;98881.03;5100083;28;20036;-92
2022/06/03 09:59:25;;;;;;;7.40;3.50;;;;;;;31.98;28.07;98888.09;5099109;28;20135;-93
2022/06/03 10:01:58;;;;;;;6.80;3.90;;;;;;;31.87;28.92;98875.53;5102795;28;20040;-95
2022/06/03 10:04:55;;;;;;;7.05;4.10;;;;;;;31.70;30.61;98884.84;5103073;28;20044;-94
2022/06/03 10:07:26;;;;;;;7.43;3.80;;;;;;;32.01;29.45;98864.84;5071683;28;20131;-92
2022/06/03 10:13:15;;;;;;;6.88;3.38;;;;;;;32.22;27.51;98872.53;5135737;27;20313;-94
2022/06/03 10:15:46;;;;;;;9.80;3.58;;;;;;;32.19;28.11;98884.75;5131035;28;20043;-93
2022/06/03 10:18:19;;;;;;;6.25;3.13;;;;;;;32.19;28.10;98861.91;5122968;28;20039;-94
2022/06/03 10:20:46;;;;;;;9.55;3.40;;;;;;;32.47;28.92;98854.03;5124802;28;20039;-94
2022/06/03 10:26:50;;;;;;;4.93;3.20;;;;;;;32.76;27.35;98864.38;5106666;28;20031;-95
2022/06/03 10:29:21;;;;;;;6.55;3.10;;;;;;;32.21;29.25;98860.69;5119839;28;20126;-95
2022/06/03 10:31:53;;;;;;;5.18;2.83;;;;;;;31.77;30.88;98874.00;5114247;28;20404;-94
2022/06/03 10:34:23;;;;;;;3.60;2.58;;;;;;;31.95;28.13;98849.91;5122469;28;21175;-92
2022/06/03 10:36:52;;;;;;;6.22;3.00;;;;;;;32.52;27.62;98876.34;5125727;28;20093;-89
2022/06/03 10:39:19;;;;;;;4.63;2.60;;;;;;;32.70;25.38;98876.13;5122708;28;20069;-91
2022/06/03 10:41:51;;;;;;;4.13;2.80;;;;;;;32.36;26.58;98866.28;5119815;28;20043;-91
2022/06/03 10:44:22;;;;;;;3.33;2.50;;;;;;;32.28;25.75;98855.31;5117269;28;20044;-92
2022/06/03 10:46:57;;;;;;;5.93;2.90;;;;;;;32.41;26.25;98850.09;5119583;28;20044;-91
2022/06/03 10:49:24;;;;;;;3.92;2.70;;;;;;;32.58;25.18;98844.53;5119601;28;20040;-92
2022/06/03 11:01:13;;;;;;;3.60;2.30;;;;;;;33.75;22.89;98840.53;5112986;27;20365;-92
2022/06/03 11:03:41;;;;;;;4.90;2.70;;;;;;;33.79;22.74;98841.03;5113037;28;20059;-92
2022/06/03 11:06:11;;;;;;;4.28;2.20;;;;;;;33.33;22.78;98841.06;5112747;28;20101;-93
2022/06/03 11:08:49;;;;;;;3.90;2.50;;;;;;;32.99;24.63;98841.53;5109568;28;20058;-93
2022/06/03 11:11:30;;;;;;;6.70;2.72;;;;;;;33.05;24.80;98829.75;5112925;28;20518;-94
2022/06/03 11:13:56;;;;;;;6.63;2.88;;;;;;;33.09;24.88;98837.47;5109020;28;20040;-93
2022/06/03 11:16:26;;;;;;;5.50;2.80;;;;;;;33.26;25.23;98832.69;5112333;28;20050;-92
2022/06/03 11:18:51;;;;;;;5.65;2.83;;;;;;;33.75;25.04;98843.28;5111690;28;20468;-92
2022/06/03 11:21:23;;;;;;;5.05;3.10;;;;;;;34.09;24.79;98838.25;5113271;28;20071;-93
2022/06/03 11:23:48;;;;;;;9.05;2.88;;;;;;;34.03;24.60;98826.09;5111149;28;20126;-92
2022/06/03 11:26:14;;;;;;;6.60;3.33;;;;;;;34.27;24.89;98824.94;5111556;28;20445;-91
2022/06/03 11:28:47;;;;;;;7.43;3.08;;;;;;;33.98;25.44;98845.09;5111864;28;20048;-91
2022/06/03 11:31:18;;;;;;;4.15;2.78;;;;;;;33.89;25.65;98835.22;5111507;28;20066;-92
2022/06/03 11:33:50;;;;;;;6.18;3.22;;;;;;;34.03;25.94;98839.00;5110372;28;20144;-91
2022/06/03 11:36:20;;;;;;;5.97;3.00;;;;;;;34.21;25.09;98834.00;5111972;28;20378;-92
2022/06/03 11:38:52;;;;;;;6.53;2.80;;;;;;;34.24;24.90;98839.13;5112565;28;20040;-93
2022/06/03 11:41:21;;;;;;;3.55;2.55;;;;;;;33.77;24.76;98840.34;5112169;28;20089;-89
2022/06/03 11:43:52;;;;;;;5.40;2.78;;;;;;;33.37;25.51;98831.38;5112063;28;20452;-92
2022/06/03 11:46:24;;;;;;;5.40;2.80;;;;;;;33.74;25.18;98844.31;5111966;28;20063;-90
2022/06/03 11:48:53;;;;;;;5.43;3.00;;;;;;;33.76;25.02;98844.13;5106920;28;20044;-93
2022/06/03 11:51:19;;;;;;;3.70;2.72;;;;;;;33.91;25.48;98831.19;5111601;28;20036;-91
2022/06/03 11:53:48;;;;;;;6.72;3.45;;;;;;;33.96;25.30;98823.22;5111137;28;20059;-94
2022/06/03 11:56:16;;;;;;;5.65;2.90;;;;;;;34.13;26.65;98828.56;5111088;28;20040;-92
2022/06/03 11:58:54;;;;;;;4.53;2.85;;;;;;;34.36;25.72;98823.78;5110986;28;20477;-93
2022/06/03 12:01:27;;;;;;;5.38;2.95;;;;;;;34.35;24.76;98822.09;5110640;28;20127;-93
2022/06/03 12:03:59;;;;;;;8.82;3.20;;;;;;;34.26;25.40;98816.84;5110591;28;20051;-91
2022/06/03 12:06:33;;;;;;;5.65;2.97;;;;;;;34.31;25.53;98829.03;5106022;28;20036;-93
2022/06/03 12:09:04;;;;;;;5.43;2.95;;;;;;;34.51;24.59;98821.00;5110982;28;20044;-92
2022/06/03 12:14:58;;;;;;;5.95;3.03;;;;;;;34.72;24.62;98809.16;5156163;27;20368;-90
2022/06/03 12:17:30;;;;;;;8.05;3.08;;;;;;;35.00;24.15;98821.31;5119787;28;20040;-91
2022/06/03 12:19:56;;;;;;;5.00;3.08;;;;;;;35.02;22.93;98808.16;5119063;28;20465;-90
2022/06/03 12:22:39;;;;;;;4.05;2.90;;;;;;;34.77;23.16;98797.53;5119859;27;20039;-91
2022/06/03 12:25:21;;;;;;;6.07;2.85;;;;;;;34.29;22.78;98802.69;5115377;28;20075;-91
2022/06/03 12:27:53;;;;;;;5.38;3.00;;;;;;;34.53;24.01;98807.84;5122322;28;20146;-92
2022/06/03 12:30:43;;;;;;;4.28;2.60;;;;;;;34.82;22.02;98788.63;5116512;28;20081;-91
2022/06/03 12:33:19;;;;;;;6.55;2.45;;;;;;;35.05;22.59;98794.81;5118585;28;20041;-91
2022/06/03 12:36:08;;;;;;;4.20;2.50;;;;;;;35.18;21.00;98800.50;5118837;28;20081;-90
2022/06/03 12:38:52;;;;;;;4.82;2.78;;;;;;;35.31;21.74;98788.69;5124887;27;20040;-92
2022/06/03 12:42:11;;;;;;;6.47;2.40;;;;;;;35.49;21.13;98806.69;5121195;27;20039;-94
2022/06/03 12:44:50;;;;;;;6.03;2.30;;;;;;;35.19;20.50;98804.09;5118651;28;20035;-92
2022/06/03 12:47:26;;;;;;;7.00;2.67;;;;;;;35.34;21.11;98815.09;5120377;28;20047;-91
2022/06/03 12:49:53;;;;;;;4.20;2.17;;;;;;;35.70;20.95;98820.50;5112796;28;20051;-90
2022/06/03 12:52:36;;;;;;;8.93;2.70;;;;;;;35.67;20.03;98818.13;5116944;28;20096;-92
2022/06/03 12:55:07;;;;;;;4.95;2.55;;;;;;;35.91;20.42;98810.41;5122506;28;20268;-92
2022/06/03 12:57:45;;;;;;;4.63;2.40;;;;;;;35.13;20.89;98797.47;5116870;28;20031;-93
2022/06/03 13:00:14;;;;;;;;;;;;;;;35.36;20.79;98819.34;5118276;28;20031;-91
2022/06/03 13:02:51;;;;;;;8.13;2.67;;;;;;;34.93;21.19;98819.34;5114826;28;19920;-89
2022/06/03 13:05:41;;;;;;;;;;;;;;;34.86;22.15;98818.44;5117954;28;20044;-92
2022/06/03 13:08:11;;;;;;;7.03;2.95;;;;;;;34.66;21.96;98833.94;5106327;28;19927;-90
2022/06/03 13:10:58;;;;;;;6.20;2.40;;;;;;;34.68;21.80;98821.66;5119902;28;20058;-92
2022/06/03 13:13:49;;;;;;;6.32;2.70;;;;;;;34.97;21.98;98825.34;5117784;28;20051;-92
2022/06/03 13:16:39;;;;;;;7.13;2.90;;;;;;;35.33;22.99;98824.44;5121747;28;20442;-90
2022/06/03 13:19:44;;;;;;;8.02;2.80;;;;;;;35.24;22.52;98820.94;5108882;28;20063;-91
2022/06/03 13:22:26;;;;;;;6.60;3.13;;;;;;;34.74;23.51;98825.50;5107314;28;20043;-90